sensor_id;sensor_type;location;lat;lon;timestamp;P1;durP1;ratioP1;P2;durP2;ratioP2
67986;SDS011;54767;53.800;15.956;2023-06-26T00:01:58;8.40;;;5.30;;
67986;SDS011;54767;53.800;15.956;2023-06-26T00:04:27;6.70;;;5.10;;
67986;SDS011;54767;53.800;15.956;2023-06-26T00:06:55;7.10;;;5.10;;
67986;SDS011;54767;53.800;15.956;2023-06-26T00:09:23;7.80;;;5.30;;
67986;SDS011;54767;53.800;15.956;2023-06-26T00:11:52;7.10;;;4.90;;
67986;SDS011;54767;53.800;15.956;2023-06-26T00:14:21;7.70;;;4.80;;
67986;SDS011;54767;53.800;15.956;2023-06-26T00:16:49;6.90;;;4.60;;
67986;SDS011;54767;53.800;15.956;2023-06-26T00:19:18;8.50;;;4.90;;
67986;SDS011;54767;53.800;15.956;2023-06-26T00:21:47;7.10;;;5.00;;
67986;SDS011;54767;53.800;15.956;2023-06-26T00:24:16;7.20;;;4.70;;
67986;SDS011;54767;53.800;15.956;2023-06-26T00:26:46;6.90;;;4.80;;
67986;SDS011;54767;53.800;15.956;2023-06-26T00:29:15;6.60;;;4.80;;
67986;SDS011;54767;53.800;15.956;2023-06-26T00:31:44;6.70;;;4.80;;
67986;SDS011;54767;53.800;15.956;2023-06-26T00:34:12;8.70;;;4.80;;
67986;SDS011;54767;53.800;15.956;2023-06-26T00:36:43;5.90;;;4.90;;
67986;SDS011;54767;53.800;15.956;2023-06-26T00:39:11;6.20;;;5.00;;
67986;SDS011;54767;53.800;15.956;2023-06-26T00:41:39;5.60;;;4.40;;
67986;SDS011;54767;53.800;15.956;2023-06-26T00:44:08;7.10;;;4.90;;
67986;SDS011;54767;53.800;15.956;2023-06-26T00:46:36;6.20;;;4.80;;
67986;SDS011;54767;53.800;15.956;2023-06-26T00:49:05;7.60;;;4.80;;
67986;SDS011;54767;53.800;15.956;2023-06-26T00:51:33;8.70;;;4.80;;
67986;SDS011;54767;53.800;15.956;2023-06-26T00:54:02;7.30;;;4.90;;
67986;SDS011;54767;53.800;15.956;2023-06-26T00:56:31;7.50;;;5.00;;
67986;SDS011;54767;53.800;15.956;2023-06-26T00:59:00;6.50;;;4.60;;
67986;SDS011;54767;53.800;15.956;2023-06-26T01:01:28;6.20;;;4.90;;
67986;SDS011;54767;53.800;15.956;2023-06-26T01:03:56;7.90;;;4.90;;
67986;SDS011;54767;53.800;15.956;2023-06-26T01:06:25;6.00;;;4.40;;
67986;SDS011;54767;53.800;15.956;2023-06-26T01:08:57;8.30;;;4.90;;
67986;SDS011;54767;53.800;15.956;2023-06-26T01:13:56;7.60;;;4.60;;
67986;SDS011;54767;53.800;15.956;2023-06-26T01:16:26;7.10;;;4.90;;
67986;SDS011;54767;53.800;15.956;2023-06-26T01:18:57;7.70;;;4.80;;
67986;SDS011;54767;53.800;15.956;2023-06-26T01:21:25;7.40;;;5.00;;
67986;SDS011;54767;53.800;15.956;2023-06-26T01:26:48;9.10;;;4.80;;
67986;SDS011;54767;53.800;15.956;2023-06-26T01:29:19;7.90;;;4.90;;
67986;SDS011;54767;53.800;15.956;2023-06-26T01:31:51;8.20;;;5.30;;
67986;SDS011;54767;53.800;15.956;2023-06-26T01:34:20;7.00;;;4.60;;
67986;SDS011;54767;53.800;15.956;2023-06-26T01:36:49;8.60;;;5.20;;
67986;SDS011;54767;53.800;15.956;2023-06-26T01:39:18;8.10;;;5.50;;
67986;SDS011;54767;53.800;15.956;2023-06-26T01:41:47;6.00;;;4.50;;
67986;SDS011;54767;53.800;15.956;2023-06-26T01:44:23;7.50;;;4.50;;
67986;SDS011;54767;53.800;15.956;2023-06-26T01:47:00;8.60;;;4.50;;
67986;SDS011;54767;53.800;15.956;2023-06-26T01:52:53;6.40;;;4.60;;
67986;SDS011;54767;53.800;15.956;2023-06-26T01:55:49;7.50;;;5.20;;
67986;SDS011;54767;53.800;15.956;2023-06-26T01:58:22;7.20;;;5.00;;
67986;SDS011;54767;53.800;15.956;2023-06-26T02:00:53;7.30;;;4.80;;
67986;SDS011;54767;53.800;15.956;2023-06-26T02:03:21;6.50;;;4.70;;
67986;SDS011;54767;53.800;15.956;2023-06-26T02:05:52;7.70;;;5.30;;
67986;SDS011;54767;53.800;15.956;2023-06-26T02:08:21;7.40;;;4.80;;
67986;SDS011;54767;53.800;15.956;2023-06-26T02:13:19;7.00;;;4.90;;
67986;SDS011;54767;53.800;15.956;2023-06-26T02:15:47;6.80;;;4.90;;
67986;SDS011;54767;53.800;15.956;2023-06-26T02:18:16;6.40;;;5.00;;
67986;SDS011;54767;53.800;15.956;2023-06-26T02:20:45;8.70;;;5.00;;
67986;SDS011;54767;53.800;15.956;2023-06-26T02:23:13;7.50;;;4.70;;
67986;SDS011;54767;53.800;15.956;2023-06-26T02:25:42;7.10;;;4.90;;
67986;SDS011;54767;53.800;15.956;2023-06-26T02:28:10;6.10;;;4.40;;
67986;SDS011;54767;53.800;15.956;2023-06-26T02:30:38;7.50;;;4.90;;
67986;SDS011;54767;53.800;15.956;2023-06-26T02:33:07;11.20;;;5.80;;
67986;SDS011;54767;53.800;15.956;2023-06-26T02:35:36;8.70;;;5.40;;
67986;SDS011;54767;53.800;15.956;2023-06-26T02:38:04;8.80;;;5.10;;
67986;SDS011;54767;53.800;15.956;2023-06-26T02:40:32;6.50;;;4.60;;
67986;SDS011;54767;53.800;15.956;2023-06-26T02:43:01;6.20;;;4.60;;
67986;SDS011;54767;53.800;15.956;2023-06-26T02:45:29;7.70;;;5.10;;
67986;SDS011;54767;53.800;15.956;2023-06-26T02:47:58;7.10;;;4.60;;
67986;SDS011;54767;53.800;15.956;2023-06-26T02:50:26;7.00;;;4.80;;
67986;SDS011;54767;53.800;15.956;2023-06-26T02:52:54;7.30;;;4.80;;
67986;SDS011;54767;53.800;15.956;2023-06-26T02:55:23;6.30;;;4.90;;
67986;SDS011;54767;53.800;15.956;2023-06-26T02:57:51;6.50;;;4.70;;
67986;SDS011;54767;53.800;15.956;2023-06-26T03:00:19;6.60;;;4.70;;
67986;SDS011;54767;53.800;15.956;2023-06-26T03:02:48;9.20;;;5.00;;
67986;SDS011;54767;53.800;15.956;2023-06-26T03:05:16;7.50;;;5.20;;
67986;SDS011;54767;53.800;15.956;2023-06-26T03:07:45;7.50;;;4.80;;
67986;SDS011;54767;53.800;15.956;2023-06-26T03:10:13;6.90;;;5.00;;
67986;SDS011;54767;53.800;15.956;2023-06-26T03:12:41;6.90;;;4.90;;
67986;SDS011;54767;53.800;15.956;2023-06-26T03:15:10;7.90;;;5.30;;
67986;SDS011;54767;53.800;15.956;2023-06-26T03:17:39;7.70;;;5.00;;
67986;SDS011;54767;53.800;15.956;2023-06-26T03:20:07;8.80;;;5.30;;
67986;SDS011;54767;53.800;15.956;2023-06-26T03:22:37;7.90;;;4.70;;
67986;SDS011;54767;53.800;15.956;2023-06-26T03:25:05;8.60;;;4.60;;
67986;SDS011;54767;53.800;15.956;2023-06-26T03:27:34;6.10;;;4.40;;
67986;SDS011;54767;53.800;15.956;2023-06-26T03:30:02;8.00;;;4.90;;
67986;SDS011;54767;53.800;15.956;2023-06-26T03:32:30;6.00;;;4.70;;
67986;SDS011;54767;53.800;15.956;2023-06-26T03:34:59;7.90;;;5.10;;
67986;SDS011;54767;53.800;15.956;2023-06-26T03:37:33;8.00;;;5.10;;
67986;SDS011;54767;53.800;15.956;2023-06-26T03:40:02;6.70;;;4.90;;
67986;SDS011;54767;53.800;15.956;2023-06-26T03:42:32;7.80;;;5.00;;
67986;SDS011;54767;53.800;15.956;2023-06-26T03:45:00;6.70;;;5.20;;
67986;SDS011;54767;53.800;15.956;2023-06-26T03:47:29;8.30;;;4.60;;
67986;SDS011;54767;53.800;15.956;2023-06-26T03:49:57;7.90;;;5.10;;
67986;SDS011;54767;53.800;15.956;2023-06-26T03:52:26;7.20;;;4.60;;
67986;SDS011;54767;53.800;15.956;2023-06-26T03:54:54;5.60;;;4.40;;
67986;SDS011;54767;53.800;15.956;2023-06-26T03:57:22;7.40;;;4.60;;
67986;SDS011;54767;53.800;15.956;2023-06-26T03:59:51;7.30;;;4.70;;
67986;SDS011;54767;53.800;15.956;2023-06-26T04:02:20;7.40;;;5.00;;
67986;SDS011;54767;53.800;15.956;2023-06-26T04:04:49;6.90;;;4.90;;
67986;SDS011;54767;53.800;15.956;2023-06-26T04:07:18;8.00;;;4.90;;
67986;SDS011;54767;53.800;15.956;2023-06-26T04:09:47;7.50;;;4.90;;
67986;SDS011;54767;53.800;15.956;2023-06-26T04:12:15;7.30;;;5.10;;
67986;SDS011;54767;53.800;15.956;2023-06-26T04:14:44;7.20;;;4.90;;
67986;SDS011;54767;53.800;15.956;2023-06-26T04:17:12;9.40;;;4.80;;
67986;SDS011;54767;53.800;15.956;2023-06-26T04:19:40;8.00;;;4.80;;
67986;SDS011;54767;53.800;15.956;2023-06-26T04:22:09;8.90;;;5.30;;
67986;SDS011;54767;53.800;15.956;2023-06-26T04:24:37;6.80;;;4.90;;
67986;SDS011;54767;53.800;15.956;2023-06-26T04:27:05;8.30;;;5.00;;
67986;SDS011;54767;53.800;15.956;2023-06-26T04:29:34;8.60;;;4.70;;
67986;SDS011;54767;53.800;15.956;2023-06-26T04:32:03;8.10;;;4.80;;
67986;SDS011;54767;53.800;15.956;2023-06-26T04:34:31;8.80;;;4.60;;
67986;SDS011;54767;53.800;15.956;2023-06-26T04:37:02;7.90;;;5.20;;
67986;SDS011;54767;53.800;15.956;2023-06-26T04:39:32;8.00;;;4.80;;
67986;SDS011;54767;53.800;15.956;2023-06-26T04:42:00;7.80;;;5.20;;
67986;SDS011;54767;53.800;15.956;2023-06-26T04:44:28;7.00;;;5.00;;
67986;SDS011;54767;53.800;15.956;2023-06-26T04:46:57;6.90;;;5.10;;
67986;SDS011;54767;53.800;15.956;2023-06-26T04:49:25;8.40;;;5.00;;
67986;SDS011;54767;53.800;15.956;2023-06-26T04:51:56;8.70;;;5.40;;
67986;SDS011;54767;53.800;15.956;2023-06-26T04:54:24;11.20;;;5.30;;
67986;SDS011;54767;53.800;15.956;2023-06-26T04:56:53;9.80;;;5.20;;
67986;SDS011;54767;53.800;15.956;2023-06-26T04:59:21;8.30;;;5.30;;
67986;SDS011;54767;53.800;15.956;2023-06-26T05:01:50;11.10;;;6.00;;
67986;SDS011;54767;53.800;15.956;2023-06-26T05:04:18;8.50;;;5.10;;
67986;SDS011;54767;53.800;15.956;2023-06-26T05:06:46;8.70;;;5.40;;
67986;SDS011;54767;53.800;15.956;2023-06-26T05:09:15;9.90;;;5.60;;
67986;SDS011;54767;53.800;15.956;2023-06-26T05:11:43;7.90;;;5.90;;
67986;SDS011;54767;53.800;15.956;2023-06-26T05:14:12;8.90;;;5.40;;
67986;SDS011;54767;53.800;15.956;2023-06-26T05:19:09;8.50;;;5.80;;
67986;SDS011;54767;53.800;15.956;2023-06-26T05:21:38;8.10;;;5.40;;
67986;SDS011;54767;53.800;15.956;2023-06-26T05:24:07;9.00;;;5.70;;
67986;SDS011;54767;53.800;15.956;2023-06-26T05:26:37;9.40;;;5.80;;
67986;SDS011;54767;53.800;15.956;2023-06-26T05:29:05;8.60;;;6.10;;
67986;SDS011;54767;53.800;15.956;2023-06-26T05:31:34;8.30;;;5.80;;
67986;SDS011;54767;53.800;15.956;2023-06-26T05:34:08;9.00;;;6.20;;
67986;SDS011;54767;53.800;15.956;2023-06-26T05:36:38;7.60;;;6.00;;
67986;SDS011;54767;53.800;15.956;2023-06-26T05:39:09;7.60;;;5.70;;
67986;SDS011;54767;53.800;15.956;2023-06-26T05:41:37;8.40;;;6.10;;
67986;SDS011;54767;53.800;15.956;2023-06-26T05:44:06;8.60;;;5.70;;
67986;SDS011;54767;53.800;15.956;2023-06-26T05:46:34;6.30;;;5.30;;
67986;SDS011;54767;53.800;15.956;2023-06-26T05:49:03;9.50;;;5.90;;
67986;SDS011;54767;53.800;15.956;2023-06-26T05:51:32;8.80;;;5.20;;
67986;SDS011;54767;53.800;15.956;2023-06-26T05:54:00;8.60;;;5.30;;
67986;SDS011;54767;53.800;15.956;2023-06-26T05:56:29;6.90;;;5.20;;
67986;SDS011;54767;53.800;15.956;2023-06-26T05:58:58;7.70;;;5.00;;
67986;SDS011;54767;53.800;15.956;2023-06-26T06:01:27;6.20;;;4.50;;
67986;SDS011;54767;53.800;15.956;2023-06-26T06:03:56;7.20;;;4.50;;
67986;SDS011;54767;53.800;15.956;2023-06-26T06:06:24;5.90;;;4.40;;
67986;SDS011;54767;53.800;15.956;2023-06-26T06:08:52;5.10;;;4.20;;
67986;SDS011;54767;53.800;15.956;2023-06-26T06:11:21;5.00;;;4.10;;
67986;SDS011;54767;53.800;15.956;2023-06-26T06:13:50;4.80;;;4.00;;
67986;SDS011;54767;53.800;15.956;2023-06-26T06:16:18;6.80;;;3.80;;
67986;SDS011;54767;53.800;15.956;2023-06-26T06:18:46;5.50;;;4.00;;
67986;SDS011;54767;53.800;15.956;2023-06-26T06:21:15;6.70;;;4.20;;
67986;SDS011;54767;53.800;15.956;2023-06-26T06:23:43;5.40;;;3.90;;
67986;SDS011;54767;53.800;15.956;2023-06-26T06:26:12;6.50;;;3.90;;
67986;SDS011;54767;53.800;15.956;2023-06-26T06:28:40;5.10;;;3.90;;
67986;SDS011;54767;53.800;15.956;2023-06-26T06:31:08;4.60;;;3.70;;
67986;SDS011;54767;53.800;15.956;2023-06-26T06:33:37;4.90;;;3.70;;
67986;SDS011;54767;53.800;15.956;2023-06-26T06:36:05;6.10;;;3.70;;
67986;SDS011;54767;53.800;15.956;2023-06-26T06:38:33;3.90;;;3.50;;
67986;SDS011;54767;53.800;15.956;2023-06-26T06:41:02;4.30;;;3.80;;
67986;SDS011;54767;53.800;15.956;2023-06-26T06:43:30;5.20;;;3.70;;
67986;SDS011;54767;53.800;15.956;2023-06-26T06:45:59;4.10;;;3.70;;
67986;SDS011;54767;53.800;15.956;2023-06-26T06:48:27;4.10;;;3.60;;
67986;SDS011;54767;53.800;15.956;2023-06-26T06:50:56;4.20;;;3.70;;
67986;SDS011;54767;53.800;15.956;2023-06-26T06:53:24;4.10;;;3.70;;
67986;SDS011;54767;53.800;15.956;2023-06-26T06:55:52;3.80;;;3.50;;
67986;SDS011;54767;53.800;15.956;2023-06-26T06:58:21;3.90;;;3.40;;
67986;SDS011;54767;53.800;15.956;2023-06-26T07:03:20;4.60;;;3.40;;
67986;SDS011;54767;53.800;15.956;2023-06-26T07:05:49;5.20;;;3.70;;
67986;SDS011;54767;53.800;15.956;2023-06-26T07:08:17;4.20;;;3.40;;
67986;SDS011;54767;53.800;15.956;2023-06-26T07:10:47;4.50;;;3.50;;
67986;SDS011;54767;53.800;15.956;2023-06-26T07:13:15;4.00;;;3.60;;
67986;SDS011;54767;53.800;15.956;2023-06-26T07:15:43;5.00;;;3.60;;
67986;SDS011;54767;53.800;15.956;2023-06-26T07:18:14;4.90;;;3.40;;
67986;SDS011;54767;53.800;15.956;2023-06-26T07:20:42;4.80;;;3.50;;
67986;SDS011;54767;53.800;15.956;2023-06-26T07:23:11;5.30;;;3.40;;
67986;SDS011;54767;53.800;15.956;2023-06-26T07:25:39;4.20;;;3.50;;
67986;SDS011;54767;53.800;15.956;2023-06-26T07:28:11;4.30;;;3.60;;
67986;SDS011;54767;53.800;15.956;2023-06-26T07:30:40;5.10;;;3.30;;
67986;SDS011;54767;53.800;15.956;2023-06-26T07:33:09;3.70;;;3.20;;
67986;SDS011;54767;53.800;15.956;2023-06-26T07:35:37;3.30;;;3.00;;
67986;SDS011;54767;53.800;15.956;2023-06-26T07:38:06;3.80;;;3.50;;
67986;SDS011;54767;53.800;15.956;2023-06-26T07:40:34;4.30;;;3.20;;
67986;SDS011;54767;53.800;15.956;2023-06-26T07:45:32;3.60;;;2.90;;
67986;SDS011;54767;53.800;15.956;2023-06-26T07:48:00;3.90;;;3.40;;
67986;SDS011;54767;53.800;15.956;2023-06-26T07:50:29;3.90;;;3.40;;
67986;SDS011;54767;53.800;15.956;2023-06-26T07:52:57;4.50;;;3.50;;
67986;SDS011;54767;53.800;15.956;2023-06-26T07:55:26;3.80;;;3.40;;
67986;SDS011;54767;53.800;15.956;2023-06-26T07:57:55;3.70;;;3.30;;
67986;SDS011;54767;53.800;15.956;2023-06-26T08:00:23;4.00;;;3.60;;
67986;SDS011;54767;53.800;15.956;2023-06-26T08:02:52;4.70;;;3.70;;
67986;SDS011;54767;53.800;15.956;2023-06-26T08:07:49;6.50;;;3.60;;
67986;SDS011;54767;53.800;15.956;2023-06-26T08:10:18;4.60;;;3.60;;
67986;SDS011;54767;53.800;15.956;2023-06-26T08:12:46;4.90;;;3.90;;
67986;SDS011;54767;53.800;15.956;2023-06-26T08:15:17;4.40;;;3.50;;
67986;SDS011;54767;53.800;15.956;2023-06-26T08:17:46;5.30;;;3.80;;
67986;SDS011;54767;53.800;15.956;2023-06-26T08:20:15;4.40;;;3.60;;
67986;SDS011;54767;53.800;15.956;2023-06-26T08:22:44;4.00;;;3.60;;
67986;SDS011;54767;53.800;15.956;2023-06-26T08:25:16;4.70;;;3.80;;
67986;SDS011;54767;53.800;15.956;2023-06-26T08:27:44;5.40;;;4.00;;
67986;SDS011;54767;53.800;15.956;2023-06-26T08:30:13;5.30;;;4.10;;
67986;SDS011;54767;53.800;15.956;2023-06-26T08:32:41;5.70;;;3.90;;
67986;SDS011;54767;53.800;15.956;2023-06-26T08:35:10;5.90;;;4.30;;
67986;SDS011;54767;53.800;15.956;2023-06-26T08:37:38;5.60;;;4.60;;
67986;SDS011;54767;53.800;15.956;2023-06-26T08:40:07;4.70;;;4.10;;
67986;SDS011;54767;53.800;15.956;2023-06-26T08:42:36;6.30;;;4.10;;
67986;SDS011;54767;53.800;15.956;2023-06-26T08:45:05;4.50;;;3.90;;
67986;SDS011;54767;53.800;15.956;2023-06-26T08:47:34;4.30;;;3.90;;
67986;SDS011;54767;53.800;15.956;2023-06-26T08:50:15;5.20;;;4.10;;
67986;SDS011;54767;53.800;15.956;2023-06-26T08:55:41;5.50;;;3.90;;
67986;SDS011;54767;53.800;15.956;2023-06-26T08:58:11;4.50;;;3.80;;
67986;SDS011;54767;53.800;15.956;2023-06-26T09:00:40;4.40;;;3.80;;
67986;SDS011;54767;53.800;15.956;2023-06-26T09:03:09;4.30;;;3.90;;
67986;SDS011;54767;53.800;15.956;2023-06-26T09:05:38;4.20;;;3.70;;
67986;SDS011;54767;53.800;15.956;2023-06-26T09:10:36;5.00;;;3.70;;
67986;SDS011;54767;53.800;15.956;2023-06-26T09:13:05;7.30;;;4.30;;
67986;SDS011;54767;53.800;15.956;2023-06-26T09:15:48;4.40;;;4.00;;
67986;SDS011;54767;53.800;15.956;2023-06-26T09:18:17;4.70;;;3.80;;
67986;SDS011;54767;53.800;15.956;2023-06-26T09:20:47;4.10;;;3.70;;
67986;SDS011;54767;53.800;15.956;2023-06-26T09:23:16;4.10;;;3.50;;
67986;SDS011;54767;53.800;15.956;2023-06-26T09:25:46;4.20;;;3.70;;
67986;SDS011;54767;53.800;15.956;2023-06-26T09:28:15;3.70;;;3.40;;
67986;SDS011;54767;53.800;15.956;2023-06-26T09:30:44;4.30;;;3.80;;
67986;SDS011;54767;53.800;15.956;2023-06-26T09:33:38;4.70;;;3.90;;
67986;SDS011;54767;53.800;15.956;2023-06-26T09:36:06;4.40;;;3.50;;
67986;SDS011;54767;53.800;15.956;2023-06-26T09:38:39;5.10;;;3.80;;
67986;SDS011;54767;53.800;15.956;2023-06-26T09:41:07;4.90;;;4.00;;
67986;SDS011;54767;53.800;15.956;2023-06-26T09:43:45;5.20;;;3.90;;
67986;SDS011;54767;53.800;15.956;2023-06-26T09:46:23;6.50;;;4.30;;
67986;SDS011;54767;53.800;15.956;2023-06-26T09:51:40;4.70;;;3.90;;
67986;SDS011;54767;53.800;15.956;2023-06-26T09:54:09;4.30;;;3.90;;
67986;SDS011;54767;53.800;15.956;2023-06-26T09:56:38;4.70;;;4.10;;
67986;SDS011;54767;53.800;15.956;2023-06-26T09:59:07;5.00;;;4.50;;
67986;SDS011;54767;53.800;15.956;2023-06-26T10:01:40;4.30;;;3.70;;
67986;SDS011;54767;53.800;15.956;2023-06-26T10:04:10;7.50;;;4.00;;
67986;SDS011;54767;53.800;15.956;2023-06-26T10:06:41;4.40;;;4.00;;
67986;SDS011;54767;53.800;15.956;2023-06-26T10:09:17;4.20;;;3.80;;
67986;SDS011;54767;53.800;15.956;2023-06-26T10:11:49;3.80;;;3.50;;
67986;SDS011;54767;53.800;15.956;2023-06-26T10:14:26;4.70;;;3.70;;
67986;SDS011;54767;53.800;15.956;2023-06-26T10:16:57;5.50;;;4.30;;
67986;SDS011;54767;53.800;15.956;2023-06-26T10:19:27;4.70;;;4.00;;
67986;SDS011;54767;53.800;15.956;2023-06-26T10:21:57;5.00;;;4.00;;
67986;SDS011;54767;53.800;15.956;2023-06-26T10:24:28;5.30;;;3.80;;
67986;SDS011;54767;53.800;15.956;2023-06-26T10:27:04;4.00;;;3.60;;
67986;SDS011;54767;53.800;15.956;2023-06-26T10:29:37;4.90;;;4.00;;
67986;SDS011;54767;53.800;15.956;2023-06-26T10:32:10;4.30;;;3.90;;
67986;SDS011;54767;53.800;15.956;2023-06-26T10:34:41;5.00;;;3.70;;
67986;SDS011;54767;53.800;15.956;2023-06-26T10:37:11;4.70;;;4.20;;
67986;SDS011;54767;53.800;15.956;2023-06-26T10:39:49;5.80;;;3.90;;
67986;SDS011;54767;53.800;15.956;2023-06-26T10:42:33;4.80;;;4.30;;
67986;SDS011;54767;53.800;15.956;2023-06-26T10:45:13;4.80;;;3.80;;
67986;SDS011;54767;53.800;15.956;2023-06-26T10:47:48;4.50;;;4.00;;
67986;SDS011;54767;53.800;15.956;2023-06-26T10:50:24;6.20;;;4.00;;
67986;SDS011;54767;53.800;15.956;2023-06-26T10:53:15;4.50;;;4.10;;
67986;SDS011;54767;53.800;15.956;2023-06-26T10:56:00;4.30;;;3.90;;
67986;SDS011;54767;53.800;15.956;2023-06-26T10:58:40;5.60;;;4.00;;
67986;SDS011;54767;53.800;15.956;2023-06-26T11:03:41;4.30;;;3.90;;
67986;SDS011;54767;53.800;15.956;2023-06-26T11:06:19;13.10;;;4.30;;
67986;SDS011;54767;53.800;15.956;2023-06-26T11:08:52;33.40;;;5.50;;
67986;SDS011;54767;53.800;15.956;2023-06-26T11:11:22;3.90;;;3.40;;
67986;SDS011;54767;53.800;15.956;2023-06-26T11:14:20;4.50;;;3.90;;
67986;SDS011;54767;53.800;15.956;2023-06-26T11:16:52;4.30;;;3.70;;
67986;SDS011;54767;53.800;15.956;2023-06-26T11:19:23;4.90;;;3.40;;
67986;SDS011;54767;53.800;15.956;2023-06-26T11:21:59;5.60;;;3.80;;
67986;SDS011;54767;53.800;15.956;2023-06-26T11:24:33;3.70;;;3.40;;
67986;SDS011;54767;53.800;15.956;2023-06-26T11:29:32;4.70;;;3.80;;
67986;SDS011;54767;53.800;15.956;2023-06-26T11:32:02;12.00;;;3.90;;
67986;SDS011;54767;53.800;15.956;2023-06-26T11:34:34;6.00;;;3.70;;
67986;SDS011;54767;53.800;15.956;2023-06-26T11:37:06;9.20;;;4.00;;
67986;SDS011;54767;53.800;15.956;2023-06-26T11:42:05;11.70;;;3.90;;
67986;SDS011;54767;53.800;15.956;2023-06-26T11:44:37;6.70;;;3.90;;
67986;SDS011;54767;53.800;15.956;2023-06-26T11:47:12;5.40;;;3.60;;
67986;SDS011;54767;53.800;15.956;2023-06-26T11:49:45;6.80;;;3.40;;
67986;SDS011;54767;53.800;15.956;2023-06-26T11:52:16;28.50;;;5.00;;
67986;SDS011;54767;53.800;15.956;2023-06-26T11:54:44;9.90;;;4.20;;
67986;SDS011;54767;53.800;15.956;2023-06-26T11:57:14;4.80;;;3.50;;
67986;SDS011;54767;53.800;15.956;2023-06-26T11:59:43;6.60;;;3.80;;
67986;SDS011;54767;53.800;15.956;2023-06-26T12:02:14;4.80;;;4.20;;
67986;SDS011;54767;53.800;15.956;2023-06-26T12:04:44;4.20;;;3.80;;
67986;SDS011;54767;53.800;15.956;2023-06-26T12:07:13;10.90;;;4.10;;
67986;SDS011;54767;53.800;15.956;2023-06-26T12:09:43;4.10;;;3.80;;
67986;SDS011;54767;53.800;15.956;2023-06-26T12:12:15;6.70;;;4.10;;
67986;SDS011;54767;53.800;15.956;2023-06-26T12:14:45;5.00;;;4.00;;
67986;SDS011;54767;53.800;15.956;2023-06-26T12:17:14;4.70;;;4.20;;
67986;SDS011;54767;53.800;15.956;2023-06-26T12:19:43;4.60;;;4.20;;
67986;SDS011;54767;53.800;15.956;2023-06-26T12:22:15;4.40;;;3.90;;
67986;SDS011;54767;53.800;15.956;2023-06-26T12:24:45;4.50;;;4.10;;
67986;SDS011;54767;53.800;15.956;2023-06-26T12:27:15;4.80;;;3.80;;
67986;SDS011;54767;53.800;15.956;2023-06-26T12:30:03;4.10;;;3.70;;
67986;SDS011;54767;53.800;15.956;2023-06-26T12:32:34;5.00;;;4.00;;
67986;SDS011;54767;53.800;15.956;2023-06-26T12:35:03;4.30;;;3.90;;
67986;SDS011;54767;53.800;15.956;2023-06-26T12:37:36;5.20;;;4.10;;
67986;SDS011;54767;53.800;15.956;2023-06-26T12:40:17;4.80;;;3.90;;
67986;SDS011;54767;53.800;15.956;2023-06-26T12:42:51;5.00;;;3.90;;
67986;SDS011;54767;53.800;15.956;2023-06-26T12:45:21;5.10;;;4.00;;
67986;SDS011;54767;53.800;15.956;2023-06-26T12:48:11;9.60;;;4.80;;
67986;SDS011;54767;53.800;15.956;2023-06-26T12:50:44;5.70;;;4.20;;
67986;SDS011;54767;53.800;15.956;2023-06-26T12:53:13;5.30;;;4.40;;
67986;SDS011;54767;53.800;15.956;2023-06-26T12:58:10;4.30;;;3.90;;
67986;SDS011;54767;53.800;15.956;2023-06-26T13:00:38;5.40;;;4.10;;
67986;SDS011;54767;53.800;15.956;2023-06-26T13:03:10;4.60;;;4.20;;
67986;SDS011;54767;53.800;15.956;2023-06-26T13:05:40;4.30;;;3.90;;
67986;SDS011;54767;53.800;15.956;2023-06-26T13:08:08;9.50;;;4.20;;
67986;SDS011;54767;53.800;15.956;2023-06-26T13:10:37;5.30;;;4.40;;
67986;SDS011;54767;53.800;15.956;2023-06-26T13:13:05;6.50;;;4.00;;
67986;SDS011;54767;53.800;15.956;2023-06-26T13:15:34;4.50;;;4.10;;
67986;SDS011;54767;53.800;15.956;2023-06-26T13:18:02;4.70;;;4.10;;
67986;SDS011;54767;53.800;15.956;2023-06-26T13:20:31;4.70;;;4.20;;
67986;SDS011;54767;53.800;15.956;2023-06-26T13:22:59;4.30;;;3.90;;
67986;SDS011;54767;53.800;15.956;2023-06-26T13:25:28;6.90;;;4.00;;
67986;SDS011;54767;53.800;15.956;2023-06-26T13:27:56;4.30;;;3.90;;
67986;SDS011;54767;53.800;15.956;2023-06-26T13:30:24;5.90;;;4.20;;
67986;SDS011;54767;53.800;15.956;2023-06-26T13:32:53;4.70;;;3.60;;
67986;SDS011;54767;53.800;15.956;2023-06-26T13:35:21;4.10;;;3.80;;
67986;SDS011;54767;53.800;15.956;2023-06-26T13:37:50;4.80;;;4.00;;
67986;SDS011;54767;53.800;15.956;2023-06-26T13:40:19;6.80;;;4.30;;
67986;SDS011;54767;53.800;15.956;2023-06-26T13:42:47;8.50;;;4.30;;
67986;SDS011;54767;53.800;15.956;2023-06-26T13:45:16;4.30;;;3.80;;
67986;SDS011;54767;53.800;15.956;2023-06-26T13:47:58;4.20;;;3.80;;
67986;SDS011;54767;53.800;15.956;2023-06-26T13:50:26;6.00;;;4.00;;
67986;SDS011;54767;53.800;15.956;2023-06-26T13:53:15;4.10;;;3.80;;
67986;SDS011;54767;53.800;15.956;2023-06-26T13:55:43;4.40;;;3.70;;
67986;SDS011;54767;53.800;15.956;2023-06-26T13:58:12;5.30;;;3.80;;
67986;SDS011;54767;53.800;15.956;2023-06-26T14:00:41;4.50;;;4.10;;
67986;SDS011;54767;53.800;15.956;2023-06-26T14:03:13;6.10;;;4.30;;
67986;SDS011;54767;53.800;15.956;2023-06-26T14:08:10;4.20;;;3.90;;
67986;SDS011;54767;53.800;15.956;2023-06-26T14:18:07;4.70;;;3.50;;
67986;SDS011;54767;53.800;15.956;2023-06-26T14:20:36;4.50;;;4.10;;
67986;SDS011;54767;53.800;15.956;2023-06-26T14:23:05;5.80;;;3.60;;
67986;SDS011;54767;53.800;15.956;2023-06-26T14:25:33;4.60;;;4.10;;
67986;SDS011;54767;53.800;15.956;2023-06-26T14:28:02;3.60;;;3.30;;
67986;SDS011;54767;53.800;15.956;2023-06-26T14:30:30;5.40;;;3.80;;
67986;SDS011;54767;53.800;15.956;2023-06-26T14:32:58;5.60;;;3.80;;
67986;SDS011;54767;53.800;15.956;2023-06-26T14:35:27;4.00;;;3.50;;
67986;SDS011;54767;53.800;15.956;2023-06-26T14:37:55;4.80;;;3.70;;
67986;SDS011;54767;53.800;15.956;2023-06-26T14:42:53;4.80;;;3.60;;
67986;SDS011;54767;53.800;15.956;2023-06-26T14:45:22;4.90;;;3.80;;
67986;SDS011;54767;53.800;15.956;2023-06-26T14:47:51;4.40;;;4.00;;
67986;SDS011;54767;53.800;15.956;2023-06-26T14:50:19;4.80;;;4.30;;
67986;SDS011;54767;53.800;15.956;2023-06-26T14:52:48;4.60;;;3.90;;
67986;SDS011;54767;53.800;15.956;2023-06-26T14:55:16;4.50;;;4.10;;
67986;SDS011;54767;53.800;15.956;2023-06-26T14:57:45;5.00;;;3.90;;
67986;SDS011;54767;53.800;15.956;2023-06-26T15:00:13;4.30;;;3.90;;
67986;SDS011;54767;53.800;15.956;2023-06-26T15:02:43;4.20;;;3.80;;
67986;SDS011;54767;53.800;15.956;2023-06-26T15:05:11;6.10;;;3.90;;
67986;SDS011;54767;53.800;15.956;2023-06-26T15:07:40;5.10;;;3.90;;
67986;SDS011;54767;53.800;15.956;2023-06-26T15:10:09;4.20;;;3.80;;
67986;SDS011;54767;53.800;15.956;2023-06-26T15:15:06;4.10;;;3.70;;
67986;SDS011;54767;53.800;15.956;2023-06-26T15:17:35;4.30;;;3.90;;
67986;SDS011;54767;53.800;15.956;2023-06-26T15:20:04;5.00;;;4.50;;
67986;SDS011;54767;53.800;15.956;2023-06-26T15:22:33;6.90;;;4.10;;
67986;SDS011;54767;53.800;15.956;2023-06-26T15:25:02;4.60;;;4.20;;
67986;SDS011;54767;53.800;15.956;2023-06-26T15:27:30;4.40;;;3.90;;
67986;SDS011;54767;53.800;15.956;2023-06-26T15:29:59;5.40;;;3.80;;
67986;SDS011;54767;53.800;15.956;2023-06-26T15:32:27;4.80;;;4.30;;
67986;SDS011;54767;53.800;15.956;2023-06-26T15:34:56;6.60;;;3.90;;
67986;SDS011;54767;53.800;15.956;2023-06-26T15:37:24;4.90;;;4.10;;
67986;SDS011;54767;53.800;15.956;2023-06-26T15:39:52;4.60;;;4.00;;
67986;SDS011;54767;53.800;15.956;2023-06-26T15:42:21;4.90;;;4.40;;
67986;SDS011;54767;53.800;15.956;2023-06-26T15:44:54;4.60;;;4.20;;